Aérodrome :
LOGIN :

S'inscrire | Disclaimer

   EN    FR    IT 

 










Légende :    VFR   VFR Marginal   IFR   IFR Intensif   IFR Très Intensif
Visi : 
Plafond : 
>= 8 km
>= 3000ft
5 à 8 km
1000 à 3000 ft
1500m à 5 km
500 à 1000 ft
800 à 1500m
200 à 500 ft
< 800m
< 200 ft
Symboles :   Orages  Brouillard  Fortes neiges  Fortes précipitations  Vent > 20 kt
SIGMETs :   Divers  Orages  Givrage  Turbulence  Onde Orograph.  Cendres Volcan.







- Altitude de l'aérodrome : 768 ft
- Code IATA : MXP


LIMC - Milano Malpensa

DERNIER METAR :
  • 172250Z VRB01KT 0200 R35R/1200D R17L/0800V1200U R35L/0700N FG OVC001 04/04 Q1017 NOSIG

METARs EXPIRÉS :
  • 172220Z VRB01KT 0500 R35R/P1500N R17L/1400U R35L/1400U FG OVC002 04/04 Q1017 NOSIG
  • 172150Z VRB01KT 0800 R35R/1400D R17L/1400D R35L/P1500N FG OVC002 05/04 Q1017 NOSIG
  • 172120Z 28004KT 240V320 0800 R35R/P1500N R17L/P1500N R35L/P1500N FG OVC002 05/04 Q1017 NOSIG
  • 172050Z 24005KT 1200 R35R/P1500N R17L/P1500N R35L/P1500N BR BKN008 BKN015 05/04 Q1017 NOSIG
  • 172020Z 23003KT 2000 BR BKN010 BKN030 05/04 Q1017 NOSIG

TAF TAF LIMC
Valide du 17 à 18h jusqu'au 19 à 00h UTC


171700Z 1718/1824 VRB05KT 2000 BR BKN020
BECMG 1720/1722 1500 BCFG
TEMPO 1802/1807 0600 FG BKN005
BECMG 1807/1810 6000 NSW
Pas de NOTAMs connus pour ce terrain.



MET'MAP, la Météo Aéronautique d'un coup d'oeil ! - Copyright ORBIFLY Décembre 2007 - Disclaimer

ORBIFLY MET'MAP TEAM :

Programmation & Développement : Alexandra Zaïnal
Conception & Développement : Baudouin d'Aumeries
Co-Programmation & Développement : Marc-Olivier Méhu
Soutien technique & logistique : Manuel Goepfert

Contact : metmap@orbifly.com




SOURCES & CREDITS :

   NOAA